Delta Billie — WDE8059 — position and weather

sailwx.info

Track history (hours):
 
Tides and Currents Weather Stations Pressure Air Temp Water Temp Dewpoint Dewpoint Depression Visibility Wind Speed Wind Dir Waves Ship Positions

Delta Billie

Owner: Baydelta Maritime, San Francicso, CA. More information available from US FCC via Universal Licensing System and Coast Guard Vessel Documentation Center.

Last reported at 2017-Sep-24 07:00 UTC. Time now 2017-Sep-24 07:08 UTC.
Position N 37°49' W 122°28'.

Length 30 m; draft 5.5 m.

Type: Towing. MMSI: 367401030.

Date/timePositionNaut miles runAvg speedWind from/ knotsBaromVisibWave heightAir tempDewpointWater temp
2017-Sep-24 07:00N 37°49' W 122°28'2 4.2
2017-Sep-24 06:30N 37°48' W 122°30'2 4.4
2017-Sep-24 06:00N 37°49' W 122°28'3 6.6
2017-Sep-24 05:30N 37°48' W 122°24'0 0.0
2017-Sep-24 05:00N 37°48' W 122°24'0 0.0
2017-Sep-24 04:30N 37°48' W 122°24'0 0.0
2017-Sep-24 04:00N 37°48' W 122°24'0 0.0
2017-Sep-24 03:30N 37°48' W 122°24'0 0.0
2017-Sep-24 03:00N 37°48' W 122°24'0 0.0
2017-Sep-24 02:30N 37°48' W 122°24'0 0.0
2017-Sep-24 02:00N 37°48' W 122°24'0 0.0
2017-Sep-24 01:30N 37°48' W 122°24'0 0.0
2017-Sep-24 01:00N 37°48' W 122°24'0 0.0
2017-Sep-24 00:30N 37°48' W 122°24'0 0.0
2017-Sep-24 00:00N 37°48' W 122°24'0 0.0
2017-Sep-23 23:30N 37°48' W 122°24'0 0.0
2017-Sep-23 23:00N 37°48' W 122°24'1 2.2
2017-Sep-23 22:30N 37°47' W 122°23'3 5.1
2017-Sep-23 22:00N 37°45' W 122°21'1 2.7
2017-Sep-23 21:31N 37°47' W 122°22'4 7.6
2017-Sep-23 21:00N 37°49' W 122°25'510.9
2017-Sep-23 20:30N 37°48' W 122°32'2 4.7
2017-Sep-23 20:00N 37°49' W 122°30'5 0.1
2017-Sep-22 02:00N 37°51' W 122°24'2 4.8
2017-Sep-22 01:30N 37°49' W 122°27'1 3.0
2017-Sep-22 01:00N 37°51' W 122°26'0 0.2
2017-Sep-22 00:31N 37°51' W 122°26'2 4.8
2017-Sep-22 00:00N 37°49' W 122°23'4 8.3
2017-Sep-21 23:30N 37°45' W 122°22'1 2.3
2017-Sep-21 23:00N 37°45' W 122°23'0 0.1
2017-Sep-21 22:30N 37°45' W 122°23'0 0.0
2017-Sep-21 22:00N 37°45' W 122°23'0 0.2
2017-Sep-21 21:30N 37°45' W 122°23'0 0.2
2017-Sep-21 21:00N 37°45' W 122°23'3 5.2
2017-Sep-21 20:31N 37°47' W 122°23'1 2.0
2017-Sep-21 20:00N 37°48' W 122°24'0 0.0
2017-Sep-21 19:30N 37°48' W 122°24'0 0.0
2017-Sep-21 19:00N 37°48' W 122°24'0 0.0
2017-Sep-21 18:30N 37°48' W 122°24'0 0.0
2017-Sep-21 18:00N 37°48' W 122°24'0 0.0
2017-Sep-21 17:30N 37°48' W 122°24'0 0.0
2017-Sep-21 17:00N 37°48' W 122°24'0 0.0
2017-Sep-21 16:30N 37°48' W 122°24'0 0.0
2017-Sep-21 16:00N 37°48' W 122°24'0 0.0
2017-Sep-21 15:30N 37°48' W 122°24'0 0.0
2017-Sep-21 15:00N 37°48' W 122°24'0 0.0
2017-Sep-21 14:30N 37°48' W 122°24'0 0.0
2017-Sep-21 14:00N 37°48' W 122°24'0 0.0
2017-Sep-21 13:30N 37°48' W 122°24'0 0.0
2017-Sep-21 13:00N 37°48' W 122°24'0 0.0
2017-Sep-21 12:30N 37°48' W 122°24'0 0.0
2017-Sep-21 12:00N 37°48' W 122°24'0 0.0
2017-Sep-21 11:30N 37°48' W 122°24'0 0.0
2017-Sep-21 11:00N 37°48' W 122°24'0 0.0
2017-Sep-21 10:30N 37°48' W 122°24'0 0.0
2017-Sep-21 10:00N 37°48' W 122°24'0 0.0
2017-Sep-21 09:30N 37°48' W 122°24'0 0.0
2017-Sep-21 09:00N 37°48' W 122°24'2 4.3
2017-Sep-21 08:30N 37°49' W 122°26'4 7.4
2017-Sep-21 08:00N 37°49' W 122°31'3 5.1
2017-Sep-21 07:30N 37°50' W 122°28'3 6.7
2017-Sep-21 07:00N 37°49' W 122°24'4 7.7
2017-Sep-21 06:31N 37°46' W 122°21'2 3.8
2017-Sep-21 06:00N 37°44' W 122°21'0 0.2
2017-Sep-21 05:30N 37°44' W 122°21'0 0.2
2017-Sep-21 05:00N 37°44' W 122°21'0 0.0
2017-Sep-21 04:30N 37°44' W 122°21'2 4.4
2017-Sep-21 04:01N 37°46' W 122°21'611.0
2017-Sep-21 03:30N 37°51' W 122°24'510.9
2017-Sep-21 03:00N 37°57' W 122°26'611.2
2017-Sep-21 02:30N 38°02' W 122°22'712.5
2017-Sep-21 01:57N 38°04' W 122°14'1 0.1
2017-Sep-20 20:51N 38°04' W 122°13'3 8.2
2017-Sep-20 20:28N 38°03' W 122°17'6 8.7
2017-Sep-20 19:48N 38°01' W 122°24'410.8
2017-Sep-20 19:27N 37°58' W 122°27'5 9.9
2017-Sep-20 19:00N 37°53' W 122°26'4 8.4
2017-Sep-20 18:30N 37°50' W 122°24'3 6.4
2017-Sep-20 18:00N 37°47' W 122°22'1 3.0
2017-Sep-20 17:30N 37°45' W 122°21'3 6.4
2017-Sep-20 17:00N 37°48' W 122°23'5 9.8
2017-Sep-20 16:30N 37°49' W 122°29'1 2.6
2017-Sep-20 16:00N 37°48' W 122°30'0 0.5
2017-Sep-20 15:30N 37°48' W 122°30'0 0.4
2017-Sep-20 15:00N 37°48' W 122°30'8 8.4
2017-Sep-20 14:00N 37°48' W 122°19'1 1.1
2017-Sep-20 13:30N 37°48' W 122°19'0 0.7
2017-Sep-20 13:00N 37°48' W 122°19'3 5.9
2017-Sep-20 12:30N 37°48' W 122°23'1 1.8
2017-Sep-20 12:00N 37°48' W 122°24'0 0.0
2017-Sep-20 11:30N 37°48' W 122°24'0 0.0
2017-Sep-20 11:00N 37°48' W 122°24'0 0.0
2017-Sep-20 10:29N 37°48' W 122°24'0 0.0
2017-Sep-20 10:00N 37°48' W 122°24'4 8.6
2017-Sep-20 09:30N 37°52' W 122°25'811.0
2017-Sep-20 08:47N 38°00' W 122°24'410.3
2017-Sep-20 08:23N 38°02' W 122°20'4 9.6
2017-Sep-20 07:59N 38°04' W 122°15'6 2.6
2017-Sep-20 05:47N 38°02' W 122°08'2 2.2
2017-Sep-20 05:06N 38°02' W 122°10'1 7.1
2017-Sep-20 05:00N 38°03' W 122°11'610.8
2017-Sep-20 04:25N 38°03' W 122°19'611.4
2017-Sep-20 03:54N 37°60' W 122°25'512.0
2017-Sep-20 03:30N 37°55' W 122°25'1 1.5
2017-Sep-20 03:00N 37°56' W 122°25'3 5.9
2017-Sep-20 02:30N 37°53' W 122°25'611.1
2017-Sep-20 02:00N 37°47' W 122°23'0 0.2
2017-Sep-20 01:30N 37°47' W 122°23'0 0.8
2017-Sep-20 01:00N 37°48' W 122°23'3 6.5
2017-Sep-20 00:30N 37°51' W 122°24'5 9.1
2017-Sep-20 00:00N 37°55' W 122°27'5 9.8
2017-Sep-19 23:30N 37°60' W 122°25'5 8.4
2017-Sep-19 22:53N 38°03' W 122°20'4 7.1
2017-Sep-19 22:23N 38°04' W 122°16'1 3.1
2017-Sep-19 21:59N 38°05' W 122°15'1 0.8
2017-Sep-19 20:24N 38°06' W 122°16'2 0.5
2017-Sep-19 16:41N 38°04' W 122°15'311.6
2017-Sep-19 16:26N 38°03' W 122°11'3 0.3
2017-Sep-19 07:14N 38°02' W 122°08'1 2.4
2017-Sep-19 06:59N 38°02' W 122°09'2 0.6
2017-Sep-19 03:49N 38°03' W 122°11'3 8.2
2017-Sep-19 03:28N 38°04' W 122°14'4 8.5
2017-Sep-19 03:00N 38°03' W 122°19'4 8.4
2017-Sep-19 02:30N 38°01' W 122°24'4 8.3
2017-Sep-19 02:00N 37°57' W 122°26'3 6.4
2017-Sep-19 01:30N 37°54' W 122°25'4 9.0
2017-Sep-19 01:00N 37°49' W 122°24'1 2.5
2017-Sep-19 00:30N 37°48' W 122°24'0 0.0
2017-Sep-19 00:00N 37°48' W 122°24'0 0.0
2017-Sep-18 23:30N 37°48' W 122°24'0 0.0
2017-Sep-18 23:00N 37°48' W 122°24'0 0.0
2017-Sep-18 22:30N 37°48' W 122°24'0 0.0
2017-Sep-18 22:00N 37°48' W 122°24'1 1.3
2017-Sep-18 21:31N 37°49' W 122°24'5 9.6
2017-Sep-18 21:00N 37°53' W 122°25'2 4.1
2017-Sep-18 20:30N 37°56' W 122°25'0 0.2
2017-Sep-18 19:59N 37°56' W 122°25'0 0.0
2017-Sep-18 19:30N 37°56' W 122°25'0 0.1
2017-Sep-18 19:00N 37°56' W 122°25'1 2.4
2017-Sep-18 18:26N 37°54' W 122°25'1 3.2
2017-Sep-18 18:00N 37°56' W 122°25'0 0.0
2017-Sep-18 17:30N 37°56' W 122°25'0 0.0
2017-Sep-18 16:59N 37°56' W 122°25'0 0.0
2017-Sep-18 16:30N 37°56' W 122°25'0 0.0
2017-Sep-18 16:00N 37°56' W 122°25'0 0.8
2017-Sep-18 15:30N 37°55' W 122°25'0 0.2
2017-Sep-18 15:00N 37°55' W 122°25'0 0.8
2017-Sep-18 14:30N 37°56' W 122°25'0 0.0
2017-Sep-18 14:00N 37°56' W 122°25'0 0.0
2017-Sep-18 13:30N 37°56' W 122°25'0 0.0
2017-Sep-18 13:00N 37°56' W 122°25'0 0.0
2017-Sep-18 12:30N 37°56' W 122°25'1 2.5
2017-Sep-18 12:00N 37°56' W 122°26'611.6
2017-Sep-18 11:30N 38°02' W 122°22'712.4
2017-Sep-18 10:56N 38°04' W 122°14'7 2.1
2017-Sep-18 07:46N 38°03' W 122°05'0 0.0
2017-Sep-18 07:23N 38°03' W 122°05'2 1.3
2017-Sep-18 06:04N 38°02' W 122°07'1 0.5
2017-Sep-18 03:35N 38°02' W 122°09'0 1.1
2017-Sep-18 03:18N 38°02' W 122°09'1 1.4
2017-Sep-18 02:12N 38°03' W 122°10'2 7.5
2017-Sep-18 02:00N 38°03' W 122°12'4 7.0
2017-Sep-18 01:27N 38°03' W 122°17'5 7.7
2017-Sep-18 00:52N 38°02' W 122°22'3 8.8
2017-Sep-18 00:30N 37°59' W 122°25'4 8.5
2017-Sep-18 00:00N 37°55' W 122°25'4 8.6
2017-Sep-17 23:30N 37°51' W 122°24'3 5.6
2017-Sep-17 23:00N 37°48' W 122°24'0 0.0
2017-Sep-17 22:30N 37°48' W 122°24'0 0.0
2017-Sep-17 22:00N 37°48' W 122°24'0 0.0
2017-Sep-17 21:30N 37°48' W 122°24'0 0.0
2017-Sep-17 21:00N 37°48' W 122°24'0 0.0
2017-Sep-17 20:30N 37°48' W 122°24'3 6.7
2017-Sep-17 20:01N 37°46' W 122°20'2 4.9
2017-Sep-17 19:30N 37°48' W 122°22'611.9
2017-Sep-17 19:00N 37°54' W 122°26'610.4
2017-Sep-17 18:24N 37°60' W 122°25'410.4
2017-Sep-17 17:59N 38°03' W 122°21'510.3
2017-Sep-17 17:29N 38°04' W 122°15'5 8.9
2017-Sep-17 16:58N 38°02' W 122°09'1 0.2
2017-Sep-17 07:26N 38°02' W 122°07'0 0.0
2017-Sep-17 07:00N 38°02' W 122°07'0 0.0
2017-Sep-17 06:25N 38°02' W 122°07'0 0.5
2017-Sep-17 06:00N 38°02' W 122°08'2 3.3
2017-Sep-17 05:19N 38°03' W 122°10'3 9.0
2017-Sep-17 05:00N 38°04' W 122°14'3 5.3
2017-Sep-17 04:27N 38°03' W 122°17'0 0.2
2017-Sep-17 04:00N 38°03' W 122°17'3 5.9
2017-Sep-17 03:30N 38°04' W 122°14'4 8.5
2017-Sep-17 03:00N 38°02' W 122°09'1 0.1
2017-Sep-16 15:50N 38°02' W 122°09'1 0.1
2017-Sep-16 04:35N 38°02' W 122°08'0 1.9
2017-Sep-16 04:30N 38°02' W 122°08'3 6.3
2017-Sep-16 04:00N 38°03' W 122°12'6 9.7
2017-Sep-16 03:25N 38°03' W 122°19'5 7.1
2017-Sep-16 02:44N 38°01' W 122°24'311.9
2017-Sep-16 02:29N 37°58' W 122°26'510.8
2017-Sep-16 02:01N 37°53' W 122°26'5 9.6
2017-Sep-16 01:31N 37°49' W 122°23'4 7.5
2017-Sep-16 01:00N 37°46' W 122°21'0 0.4
2017-Sep-16 00:31N 37°45' W 122°21'4 7.4
2017-Sep-16 00:00N 37°48' W 122°24'0 0.0
2017-Sep-15 23:30N 37°48' W 122°24'0 0.0
2017-Sep-15 23:00N 37°48' W 122°24'0 0.0
2017-Sep-15 22:30N 37°48' W 122°24'0 0.0
2017-Sep-15 22:00N 37°48' W 122°24'0 0.0
2017-Sep-15 21:30N 37°48' W 122°24'0 0.0
2017-Sep-15 21:00N 37°48' W 122°24'0 0.0
2017-Sep-15 20:30N 37°48' W 122°24'1 1.7
2017-Sep-15 20:00N 37°49' W 122°24'5 9.2
2017-Sep-15 19:30N 37°54' W 122°25'3 5.1
2017-Sep-15 19:00N 37°54' W 122°22'1 2.1
2017-Sep-15 18:30N 37°55' W 122°22'0 0.8
2017-Sep-15 17:58N 37°55' W 122°22'2 3.8
2017-Sep-15 17:30N 37°54' W 122°24'2 3.3
2017-Sep-15 17:00N 37°53' W 122°25'2 4.9
2017-Sep-15 16:30N 37°56' W 122°25'0 0.0
2017-Sep-15 16:00N 37°56' W 122°25'0 0.0
2017-Sep-15 15:29N 37°56' W 122°25'1 1.7
2017-Sep-15 15:01N 37°56' W 122°26'5 8.0
2017-Sep-15 14:26N 38°01' W 122°24'4 9.1
2017-Sep-15 14:00N 38°02' W 122°20'4 7.0
2017-Sep-15 13:30N 38°04' W 122°16'0 0.2
2017-Sep-15 12:47N 38°03' W 122°16'410.3
2017-Sep-15 12:26N 38°03' W 122°11'2 3.7
2017-Sep-15 11:46N 38°02' W 122°08'0 0.0
2017-Sep-15 11:30N 38°02' W 122°08'0 0.0
2017-Sep-15 11:00N 38°02' W 122°08'0 0.0
2017-Sep-15 10:30N 38°02' W 122°08'0 0.0
2017-Sep-15 10:00N 38°02' W 122°08'0 0.0
2017-Sep-15 09:30N 38°02' W 122°08'0 0.0
2017-Sep-15 09:00N 38°02' W 122°08'0 0.0
2017-Sep-15 08:27N 38°02' W 122°08'0 0.0
2017-Sep-15 08:00N 38°02' W 122°08'0 0.0
2017-Sep-15 07:30N 38°02' W 122°08'0 0.0
2017-Sep-15 07:00N 38°02' W 122°08'0 0.0
2017-Sep-15 06:30N 38°02' W 122°08'0 0.0
2017-Sep-15 05:59N 38°02' W 122°08'0 0.0
2017-Sep-15 05:30N 38°02' W 122°08'0 0.0
2017-Sep-15 04:59N 38°02' W 122°08'0 0.0
2017-Sep-15 04:28N 38°02' W 122°08'0 0.0
2017-Sep-15 03:06N 38°02' W 122°08'4 0.4
2017-Sep-14 17:51N 38°04' W 122°13'11 9.7
2017-Sep-14 16:46N 37°59' W 122°25'2 9.4
2017-Sep-14 16:30N 37°57' W 122°26'4 8.6
2017-Sep-14 16:01N 37°54' W 122°22'0 1.0
2017-Sep-14 15:30N 37°55' W 122°22'1 1.4
2017-Sep-14 15:00N 37°54' W 122°23'2 4.0
2017-Sep-14 14:27N 37°56' W 122°25'0 0.0
2017-Sep-14 13:58N 37°56' W 122°25'0 0.0
2017-Sep-14 13:18N 37°56' W 122°25'0 0.0
2017-Sep-14 12:59N 37°56' W 122°25'0 0.0
2017-Sep-14 12:30N 37°56' W 122°25'0 0.0
2017-Sep-14 12:00N 37°56' W 122°25'0 0.0
2017-Sep-14 11:30N 37°56' W 122°25'3 6.3
2017-Sep-14 11:00N 37°52' W 122°24'5 9.4
2017-Sep-14 10:30N 37°49' W 122°21'1 2.1
2017-Sep-14 10:01N 37°49' W 122°20'0 0.2
2017-Sep-14 09:31N 37°49' W 122°20'3 6.6
2017-Sep-14 09:00N 37°48' W 122°24'0 0.0
2017-Sep-14 08:30N 37°48' W 122°24'0 0.0
2017-Sep-14 08:00N 37°48' W 122°24'0 0.0
2017-Sep-14 07:30N 37°48' W 122°24'  
Track history (hours):
 
Tides and Currents Weather Stations Pressure Air Temp Water Temp Dewpoint Dewpoint Depression Visibility Wind Speed Wind Dir Waves Ship Positions

Delta Billie

Owner: Baydelta Maritime, San Francicso, CA. More information available from US FCC via Universal Licensing System and Coast Guard Vessel Documentation Center.

Last reported at 2017-Sep-24 07:00 UTC. Time now 2017-Sep-24 07:08 UTC.
Position N 37°49' W 122°28'.

Length 30 m; draft 5.5 m.

Type: Towing. MMSI: 367401030.

Date/timePositionNaut miles runAvg speedWind from/ knotsBaromVisibWave heightAir tempDewpointWater temp
2017-Sep-24 07:00N 37°49' W 122°28'2 4.2
2017-Sep-24 06:30N 37°48' W 122°30'2 4.4
2017-Sep-24 06:00N 37°49' W 122°28'3 6.6
2017-Sep-24 05:30N 37°48' W 122°24'0 0.0
2017-Sep-24 05:00N 37°48' W 122°24'0 0.0
2017-Sep-24 04:30N 37°48' W 122°24'0 0.0
2017-Sep-24 04:00N 37°48' W 122°24'0 0.0
2017-Sep-24 03:30N 37°48' W 122°24'0 0.0
2017-Sep-24 03:00N 37°48' W 122°24'0 0.0
2017-Sep-24 02:30N 37°48' W 122°24'0 0.0
2017-Sep-24 02:00N 37°48' W 122°24'0 0.0
2017-Sep-24 01:30N 37°48' W 122°24'0 0.0
2017-Sep-24 01:00N 37°48' W 122°24'0 0.0
2017-Sep-24 00:30N 37°48' W 122°24'0 0.0
2017-Sep-24 00:00N 37°48' W 122°24'0 0.0
2017-Sep-23 23:30N 37°48' W 122°24'0 0.0
2017-Sep-23 23:00N 37°48' W 122°24'1 2.2
2017-Sep-23 22:30N 37°47' W 122°23'3 5.1
2017-Sep-23 22:00N 37°45' W 122°21'1 2.7
2017-Sep-23 21:31N 37°47' W 122°22'4 7.6
2017-Sep-23 21:00N 37°49' W 122°25'510.9
2017-Sep-23 20:30N 37°48' W 122°32'2 4.7
2017-Sep-23 20:00N 37°49' W 122°30'5 0.1
2017-Sep-22 02:00N 37°51' W 122°24'2 4.8
2017-Sep-22 01:30N 37°49' W 122°27'1 3.0
2017-Sep-22 01:00N 37°51' W 122°26'0 0.2
2017-Sep-22 00:31N 37°51' W 122°26'2 4.8
2017-Sep-22 00:00N 37°49' W 122°23'4 8.3
2017-Sep-21 23:30N 37°45' W 122°22'1 2.3
2017-Sep-21 23:00N 37°45' W 122°23'0 0.1
2017-Sep-21 22:30N 37°45' W 122°23'0 0.0
2017-Sep-21 22:00N 37°45' W 122°23'0 0.2
2017-Sep-21 21:30N 37°45' W 122°23'0 0.2
2017-Sep-21 21:00N 37°45' W 122°23'3 5.2
2017-Sep-21 20:31N 37°47' W 122°23'1 2.0
2017-Sep-21 20:00N 37°48' W 122°24'0 0.0
2017-Sep-21 19:30N 37°48' W 122°24'0 0.0
2017-Sep-21 19:00N 37°48' W 122°24'0 0.0
2017-Sep-21 18:30N 37°48' W 122°24'0 0.0
2017-Sep-21 18:00N 37°48' W 122°24'0 0.0
2017-Sep-21 17:30N 37°48' W 122°24'0 0.0
2017-Sep-21 17:00N 37°48' W 122°24'0 0.0
2017-Sep-21 16:30N 37°48' W 122°24'0 0.0
2017-Sep-21 16:00N 37°48' W 122°24'0 0.0
2017-Sep-21 15:30N 37°48' W 122°24'0 0.0
2017-Sep-21 15:00N 37°48' W 122°24'0 0.0
2017-Sep-21 14:30N 37°48' W 122°24'0 0.0
2017-Sep-21 14:00N 37°48' W 122°24'0 0.0
2017-Sep-21 13:30N 37°48' W 122°24'0 0.0
2017-Sep-21 13:00N 37°48' W 122°24'0 0.0
2017-Sep-21 12:30N 37°48' W 122°24'0 0.0
2017-Sep-21 12:00N 37°48' W 122°24'0 0.0
2017-Sep-21 11:30N 37°48' W 122°24'0 0.0
2017-Sep-21 11:00N 37°48' W 122°24'0 0.0
2017-Sep-21 10:30N 37°48' W 122°24'0 0.0
2017-Sep-21 10:00N 37°48' W 122°24'0 0.0
2017-Sep-21 09:30N 37°48' W 122°24'0 0.0
2017-Sep-21 09:00N 37°48' W 122°24'2 4.3
2017-Sep-21 08:30N 37°49' W 122°26'4 7.4
2017-Sep-21 08:00N 37°49' W 122°31'3 5.1
2017-Sep-21 07:30N 37°50' W 122°28'3 6.7
2017-Sep-21 07:00N 37°49' W 122°24'4 7.7
2017-Sep-21 06:31N 37°46' W 122°21'2 3.8
2017-Sep-21 06:00N 37°44' W 122°21'0 0.2
2017-Sep-21 05:30N 37°44' W 122°21'0 0.2
2017-Sep-21 05:00N 37°44' W 122°21'0 0.0
2017-Sep-21 04:30N 37°44' W 122°21'2 4.4
2017-Sep-21 04:01N 37°46' W 122°21'611.0
2017-Sep-21 03:30N 37°51' W 122°24'510.9
2017-Sep-21 03:00N 37°57' W 122°26'611.2
2017-Sep-21 02:30N 38°02' W 122°22'712.5
2017-Sep-21 01:57N 38°04' W 122°14'1 0.1
2017-Sep-20 20:51N 38°04' W 122°13'3 8.2
2017-Sep-20 20:28N 38°03' W 122°17'6 8.7
2017-Sep-20 19:48N 38°01' W 122°24'410.8
2017-Sep-20 19:27N 37°58' W 122°27'5 9.9
2017-Sep-20 19:00N 37°53' W 122°26'4 8.4
2017-Sep-20 18:30N 37°50' W 122°24'3 6.4
2017-Sep-20 18:00N 37°47' W 122°22'1 3.0
2017-Sep-20 17:30N 37°45' W 122°21'3 6.4
2017-Sep-20 17:00N 37°48' W 122°23'5 9.8
2017-Sep-20 16:30N 37°49' W 122°29'1 2.6
2017-Sep-20 16:00N 37°48' W 122°30'0 0.5
2017-Sep-20 15:30N 37°48' W 122°30'0 0.4
2017-Sep-20 15:00N 37°48' W 122°30'8 8.4
2017-Sep-20 14:00N 37°48' W 122°19'1 1.1
2017-Sep-20 13:30N 37°48' W 122°19'0 0.7
2017-Sep-20 13:00N 37°48' W 122°19'3 5.9
2017-Sep-20 12:30N 37°48' W 122°23'1 1.8
2017-Sep-20 12:00N 37°48' W 122°24'0 0.0
2017-Sep-20 11:30N 37°48' W 122°24'0 0.0
2017-Sep-20 11:00N 37°48' W 122°24'0 0.0
2017-Sep-20 10:29N 37°48' W 122°24'0 0.0
2017-Sep-20 10:00N 37°48' W 122°24'4 8.6
2017-Sep-20 09:30N 37°52' W 122°25'811.0
2017-Sep-20 08:47N 38°00' W 122°24'410.3
2017-Sep-20 08:23N 38°02' W 122°20'4 9.6
2017-Sep-20 07:59N 38°04' W 122°15'6 2.6
2017-Sep-20 05:47N 38°02' W 122°08'2 2.2
2017-Sep-20 05:06N 38°02' W 122°10'1 7.1
2017-Sep-20 05:00N 38°03' W 122°11'610.8
2017-Sep-20 04:25N 38°03' W 122°19'611.4
2017-Sep-20 03:54N 37°60' W 122°25'512.0
2017-Sep-20 03:30N 37°55' W 122°25'1 1.5
2017-Sep-20 03:00N 37°56' W 122°25'3 5.9
2017-Sep-20 02:30N 37°53' W 122°25'611.1
2017-Sep-20 02:00N 37°47' W 122°23'0 0.2
2017-Sep-20 01:30N 37°47' W 122°23'0 0.8
2017-Sep-20 01:00N 37°48' W 122°23'3 6.5
2017-Sep-20 00:30N 37°51' W 122°24'5 9.1
2017-Sep-20 00:00N 37°55' W 122°27'5 9.8
2017-Sep-19 23:30N 37°60' W 122°25'5 8.4
2017-Sep-19 22:53N 38°03' W 122°20'4 7.1
2017-Sep-19 22:23N 38°04' W 122°16'1 3.1
2017-Sep-19 21:59N 38°05' W 122°15'1 0.8
2017-Sep-19 20:24N 38°06' W 122°16'2 0.5
2017-Sep-19 16:41N 38°04' W 122°15'311.6
2017-Sep-19 16:26N 38°03' W 122°11'3 0.3
2017-Sep-19 07:14N 38°02' W 122°08'1 2.4
2017-Sep-19 06:59N 38°02' W 122°09'2 0.6
2017-Sep-19 03:49N 38°03' W 122°11'3 8.2
2017-Sep-19 03:28N 38°04' W 122°14'4 8.5
2017-Sep-19 03:00N 38°03' W 122°19'4 8.4
2017-Sep-19 02:30N 38°01' W 122°24'4 8.3
2017-Sep-19 02:00N 37°57' W 122°26'3 6.4
2017-Sep-19 01:30N 37°54' W 122°25'4 9.0
2017-Sep-19 01:00N 37°49' W 122°24'1 2.5
2017-Sep-19 00:30N 37°48' W 122°24'0 0.0
2017-Sep-19 00:00N 37°48' W 122°24'0 0.0
2017-Sep-18 23:30N 37°48' W 122°24'0 0.0
2017-Sep-18 23:00N 37°48' W 122°24'0 0.0
2017-Sep-18 22:30N 37°48' W 122°24'0 0.0
2017-Sep-18 22:00N 37°48' W 122°24'1 1.3
2017-Sep-18 21:31N 37°49' W 122°24'5 9.6
2017-Sep-18 21:00N 37°53' W 122°25'2 4.1
2017-Sep-18 20:30N 37°56' W 122°25'0 0.2
2017-Sep-18 19:59N 37°56' W 122°25'0 0.0
2017-Sep-18 19:30N 37°56' W 122°25'0 0.1
2017-Sep-18 19:00N 37°56' W 122°25'1 2.4
2017-Sep-18 18:26N 37°54' W 122°25'1 3.2
2017-Sep-18 18:00N 37°56' W 122°25'0 0.0
2017-Sep-18 17:30N 37°56' W 122°25'0 0.0
2017-Sep-18 16:59N 37°56' W 122°25'0 0.0
2017-Sep-18 16:30N 37°56' W 122°25'0 0.0
2017-Sep-18 16:00N 37°56' W 122°25'0 0.8
2017-Sep-18 15:30N 37°55' W 122°25'0 0.2
2017-Sep-18 15:00N 37°55' W 122°25'0 0.8
2017-Sep-18 14:30N 37°56' W 122°25'0 0.0
2017-Sep-18 14:00N 37°56' W 122°25'0 0.0
2017-Sep-18 13:30N 37°56' W 122°25'0 0.0
2017-Sep-18 13:00N 37°56' W 122°25'0 0.0
2017-Sep-18 12:30N 37°56' W 122°25'1 2.5
2017-Sep-18 12:00N 37°56' W 122°26'611.6
2017-Sep-18 11:30N 38°02' W 122°22'712.4
2017-Sep-18 10:56N 38°04' W 122°14'7 2.1
2017-Sep-18 07:46N 38°03' W 122°05'0 0.0
2017-Sep-18 07:23N 38°03' W 122°05'2 1.3
2017-Sep-18 06:04N 38°02' W 122°07'1 0.5
2017-Sep-18 03:35N 38°02' W 122°09'0 1.1
2017-Sep-18 03:18N 38°02' W 122°09'1 1.4
2017-Sep-18 02:12N 38°03' W 122°10'2 7.5
2017-Sep-18 02:00N 38°03' W 122°12'4 7.0
2017-Sep-18 01:27N 38°03' W 122°17'5 7.7
2017-Sep-18 00:52N 38°02' W 122°22'3 8.8
2017-Sep-18 00:30N 37°59' W 122°25'4 8.5
2017-Sep-18 00:00N 37°55' W 122°25'4 8.6
2017-Sep-17 23:30N 37°51' W 122°24'3 5.6
2017-Sep-17 23:00N 37°48' W 122°24'0 0.0
2017-Sep-17 22:30N 37°48' W 122°24'0 0.0
2017-Sep-17 22:00N 37°48' W 122°24'0 0.0
2017-Sep-17 21:30N 37°48' W 122°24'0 0.0
2017-Sep-17 21:00N 37°48' W 122°24'0 0.0
2017-Sep-17 20:30N 37°48' W 122°24'3 6.7
2017-Sep-17 20:01N 37°46' W 122°20'2 4.9
2017-Sep-17 19:30N 37°48' W 122°22'611.9
2017-Sep-17 19:00N 37°54' W 122°26'610.4
2017-Sep-17 18:24N 37°60' W 122°25'410.4
2017-Sep-17 17:59N 38°03' W 122°21'510.3
2017-Sep-17 17:29N 38°04' W 122°15'5 8.9
2017-Sep-17 16:58N 38°02' W 122°09'1 0.2
2017-Sep-17 07:26N 38°02' W 122°07'0 0.0
2017-Sep-17 07:00N 38°02' W 122°07'0 0.0
2017-Sep-17 06:25N 38°02' W 122°07'0 0.5
2017-Sep-17 06:00N 38°02' W 122°08'2 3.3
2017-Sep-17 05:19N 38°03' W 122°10'3 9.0
2017-Sep-17 05:00N 38°04' W 122°14'3 5.3
2017-Sep-17 04:27N 38°03' W 122°17'0 0.2
2017-Sep-17 04:00N 38°03' W 122°17'3 5.9
2017-Sep-17 03:30N 38°04' W 122°14'4 8.5
2017-Sep-17 03:00N 38°02' W 122°09'1 0.1
2017-Sep-16 15:50N 38°02' W 122°09'1 0.1
2017-Sep-16 04:35N 38°02' W 122°08'0 1.9
2017-Sep-16 04:30N 38°02' W 122°08'3 6.3
2017-Sep-16 04:00N 38°03' W 122°12'6 9.7
2017-Sep-16 03:25N 38°03' W 122°19'5 7.1
2017-Sep-16 02:44N 38°01' W 122°24'311.9
2017-Sep-16 02:29N 37°58' W 122°26'510.8
2017-Sep-16 02:01N 37°53' W 122°26'5 9.6
2017-Sep-16 01:31N 37°49' W 122°23'4 7.5
2017-Sep-16 01:00N 37°46' W 122°21'0 0.4
2017-Sep-16 00:31N 37°45' W 122°21'4 7.4
2017-Sep-16 00:00N 37°48' W 122°24'0 0.0
2017-Sep-15 23:30N 37°48' W 122°24'0 0.0
2017-Sep-15 23:00N 37°48' W 122°24'0 0.0
2017-Sep-15 22:30N 37°48' W 122°24'0 0.0
2017-Sep-15 22:00N 37°48' W 122°24'0 0.0
2017-Sep-15 21:30N 37°48' W 122°24'0 0.0
2017-Sep-15 21:00N 37°48' W 122°24'0 0.0
2017-Sep-15 20:30N 37°48' W 122°24'1 1.7
2017-Sep-15 20:00N 37°49' W 122°24'5 9.2
2017-Sep-15 19:30N 37°54' W 122°25'3 5.1
2017-Sep-15 19:00N 37°54' W 122°22'1 2.1
2017-Sep-15 18:30N 37°55' W 122°22'0 0.8
2017-Sep-15 17:58N 37°55' W 122°22'2 3.8
2017-Sep-15 17:30N 37°54' W 122°24'2 3.3
2017-Sep-15 17:00N 37°53' W 122°25'2 4.9
2017-Sep-15 16:30N 37°56' W 122°25'0 0.0
2017-Sep-15 16:00N 37°56' W 122°25'0 0.0
2017-Sep-15 15:29N 37°56' W 122°25'1 1.7
2017-Sep-15 15:01N 37°56' W 122°26'5 8.0
2017-Sep-15 14:26N 38°01' W 122°24'4 9.1
2017-Sep-15 14:00N 38°02' W 122°20'4 7.0
2017-Sep-15 13:30N 38°04' W 122°16'0 0.2
2017-Sep-15 12:47N 38°03' W 122°16'410.3
2017-Sep-15 12:26N 38°03' W 122°11'2 3.7
2017-Sep-15 11:46N 38°02' W 122°08'0 0.0
2017-Sep-15 11:30N 38°02' W 122°08'0 0.0
2017-Sep-15 11:00N 38°02' W 122°08'0 0.0
2017-Sep-15 10:30N 38°02' W 122°08'0 0.0
2017-Sep-15 10:00N 38°02' W 122°08'0 0.0
2017-Sep-15 09:30N 38°02' W 122°08'0 0.0
2017-Sep-15 09:00N 38°02' W 122°08'0 0.0
2017-Sep-15 08:27N 38°02' W 122°08'0 0.0
2017-Sep-15 08:00N 38°02' W 122°08'0 0.0
2017-Sep-15 07:30N 38°02' W 122°08'0 0.0
2017-Sep-15 07:00N 38°02' W 122°08'0 0.0
2017-Sep-15 06:30N 38°02' W 122°08'0 0.0
2017-Sep-15 05:59N 38°02' W 122°08'0 0.0
2017-Sep-15 05:30N 38°02' W 122°08'0 0.0
2017-Sep-15 04:59N 38°02' W 122°08'0 0.0
2017-Sep-15 04:28N 38°02' W 122°08'0 0.0
2017-Sep-15 03:06N 38°02' W 122°08'4 0.4
2017-Sep-14 17:51N 38°04' W 122°13'11 9.7
2017-Sep-14 16:46N 37°59' W 122°25'2 9.4
2017-Sep-14 16:30N 37°57' W 122°26'4 8.6
2017-Sep-14 16:01N 37°54' W 122°22'0 1.0
2017-Sep-14 15:30N 37°55' W 122°22'1 1.4
2017-Sep-14 15:00N 37°54' W 122°23'2 4.0
2017-Sep-14 14:27N 37°56' W 122°25'0 0.0
2017-Sep-14 13:58N 37°56' W 122°25'0 0.0
2017-Sep-14 13:18N 37°56' W 122°25'0 0.0
2017-Sep-14 12:59N 37°56' W 122°25'0 0.0
2017-Sep-14 12:30N 37°56' W 122°25'0 0.0
2017-Sep-14 12:00N 37°56' W 122°25'0 0.0
2017-Sep-14 11:30N 37°56' W 122°25'3 6.3
2017-Sep-14 11:00N 37°52' W 122°24'5 9.4
2017-Sep-14 10:30N 37°49' W 122°21'1 2.1
2017-Sep-14 10:01N 37°49' W 122°20'0 0.2
2017-Sep-14 09:31N 37°49' W 122°20'3 6.6
2017-Sep-14 09:00N 37°48' W 122°24'0 0.0
2017-Sep-14 08:30N 37°48' W 122°24'0 0.0
2017-Sep-14 08:00N 37°48' W 122°24'0 0.0
2017-Sep-14 07:30N 37°48' W 122°24'  

Dump ship's entire track history